Time;durP1;ratioP1;P1;durP2;ratioP2;P2;SDS_P1;SDS_P2;PMS_P1;PMS_P2;Temp;Humidity;BMP_temperature;BMP_pressure;BME280_temperature;BME280_humidity;BME280_pressure;Samples;Min_cycle;Max_cycle;Signal;HPM_P1;HPM_P2
2021/12/11 00:01:27;;;;;;;;;0.00;0.00;;;;;-146.25;100.00;57879.81;5078072;28;45464;-70
2021/12/11 00:04:01;;;;;;;;;2.00;1.00;;;;;-146.25;100.00;57879.81;5078155;28;45470;-71
2021/12/11 00:06:32;;;;;;;;;2.67;1.00;;;;;-146.25;100.00;57879.81;5078366;28;45289;-71
2021/12/11 00:09:08;;;;;;;;;4.00;1.00;;;;;-146.25;100.00;57879.81;5080517;28;45452;-71
2021/12/11 00:11:39;;;;;;;;;2.00;0.00;;;;;-146.25;100.00;57879.81;5078984;28;45250;-70
2021/12/11 00:14:09;;;;;;;;;2.00;0.33;;;;;-146.25;100.00;57879.81;5078437;28;45401;-70
2021/12/11 00:16:36;;;;;;;;;1.33;0.00;;;;;-146.25;100.00;57879.81;5078482;27;45384;-71
2021/12/11 00:19:25;;;;;;;;;2.00;0.33;;;;;-146.25;100.00;57879.81;5075521;28;47812;-70
2021/12/11 00:21:52;;;;;;;;;0.00;0.00;;;;;-146.25;100.00;57879.81;5077846;27;45582;-70
2021/12/11 00:24:26;;;;;;;;;1.33;0.00;;;;;-146.25;100.00;57879.81;5077716;28;45457;-70
2021/12/11 00:26:57;;;;;;;;;1.33;0.00;;;;;-146.25;100.00;57879.81;5077905;27;45441;-70
2021/12/11 00:29:26;;;;;;;;;2.00;1.00;;;;;-146.25;100.00;57879.81;5077629;28;46304;-70
2021/12/11 00:31:57;;;;;;;;;2.33;0.67;;;;;-146.25;100.00;57879.81;5077605;27;45301;-70
2021/12/11 00:34:23;;;;;;;;;4.00;0.00;;;;;-146.25;100.00;57879.81;5077895;28;45490;-70
2021/12/11 00:36:59;;;;;;;;;2.00;1.00;;;;;-146.25;100.00;57879.81;5077904;27;45563;-70
2021/12/11 00:39:25;;;;;;;;;1.33;1.00;;;;;-146.25;100.00;57879.81;5077483;27;46201;-70
2021/12/11 00:41:55;;;;;;;;;0.67;0.00;;;;;-146.25;100.00;57879.81;5077536;27;45302;-70
2021/12/11 00:44:34;;;;;;;;;3.67;0.00;;;;;-146.25;100.00;57879.81;5077607;28;45265;-70
2021/12/11 00:47:10;;;;;;;;;1.67;1.00;;;;;-146.25;100.00;57879.81;5077632;27;45330;-69
2021/12/11 00:49:42;;;;;;;;;2.00;0.00;;;;;-146.25;100.00;57879.81;5077450;28;45527;-70
2021/12/11 00:52:08;;;;;;;;;4.00;2.00;;;;;-146.25;100.00;57879.81;5077163;28;45532;-70
2021/12/11 00:54:41;;;;;;;;;2.00;0.00;;;;;-146.25;100.00;57879.81;5077508;28;45346;-70
2021/12/11 00:57:10;;;;;;;;;1.00;0.00;;;;;-146.25;100.00;57879.81;5077972;28;45349;-70
2021/12/11 00:59:36;;;;;;;;;1.33;0.00;;;;;-146.25;100.00;57879.81;5077499;28;45491;-70
2021/12/11 01:02:03;;;;;;;;;1.00;1.00;;;;;-146.25;100.00;57879.81;5076959;27;45550;-71
2021/12/11 01:04:41;;;;;;;;;3.00;0.00;;;;;-146.25;100.00;57879.81;5077422;28;45498;-70
2021/12/11 01:07:31;;;;;;;;;2.33;0.00;;;;;-146.25;100.00;57879.81;5077668;28;45270;-70
2021/12/11 01:10:03;;;;;;;;;2.00;0.00;;;;;-146.25;100.00;57879.81;5076904;27;45430;-70
2021/12/11 01:12:48;;;;;;;;;1.00;1.00;;;;;-146.25;100.00;57879.81;5076928;28;45476;-70
2021/12/11 01:15:24;;;;;;;;;2.00;1.00;;;;;-146.25;100.00;57879.81;5077399;27;45472;-70
2021/12/11 01:18:11;;;;;;;;;2.00;0.00;;;;;-146.25;100.00;57879.81;5077437;28;45526;-70
2021/12/11 01:20:49;;;;;;;;;0.00;0.00;;;;;-146.25;100.00;57879.81;5077379;28;45515;-70
2021/12/11 01:23:34;;;;;;;;;2.00;1.00;;;;;-146.25;100.00;57879.81;5076983;27;45400;-70
2021/12/11 01:26:04;;;;;;;;;3.00;1.00;;;;;-146.25;100.00;57879.81;5076991;27;46071;-70
2021/12/11 01:28:31;;;;;;;;;1.33;1.00;;;;;-146.25;100.00;57879.81;5076936;28;45434;-70
2021/12/11 01:31:00;;;;;;;;;3.00;1.33;;;;;-146.25;100.00;57879.81;5079594;27;45511;-70
2021/12/11 01:33:26;;;;;;;;;1.33;1.00;;;;;-146.25;100.00;57879.81;5080275;28;45464;-70
2021/12/11 01:35:52;;;;;;;;;2.00;0.67;;;;;-146.25;100.00;57879.81;5080510;28;45241;-70
2021/12/11 01:38:21;;;;;;;;;2.67;1.00;;;;;-146.25;100.00;57879.81;5080619;28;45418;-70
2021/12/11 01:40:49;;;;;;;;;1.67;0.33;;;;;-146.25;100.00;57879.81;5080362;28;45543;-70
2021/12/11 01:43:15;;;;;;;;;3.67;0.33;;;;;-146.25;100.00;57879.81;5080324;27;45177;-70
2021/12/11 01:45:46;;;;;;;;;1.33;0.00;;;;;-146.25;100.00;57879.81;5080436;27;45282;-71
2021/12/11 01:48:17;;;;;;;;;1.00;0.00;;;;;-146.25;100.00;57879.81;5080455;28;45324;-70
2021/12/11 01:50:48;;;;;;;;;0.00;0.00;;;;;-146.25;100.00;57879.81;5080189;28;45390;-70
2021/12/11 01:53:21;;;;;;;;;0.33;0.00;;;;;-146.25;100.00;57879.81;5080095;27;46005;-70
2021/12/11 01:56:00;;;;;;;;;1.00;0.00;;;;;-146.25;100.00;57879.81;5079931;28;45261;-70
2021/12/11 01:58:36;;;;;;;;;3.00;0.00;;;;;-146.25;100.00;57879.81;5080330;27;45455;-69
2021/12/11 02:01:21;;;;;;;;;2.00;0.67;;;;;-146.25;100.00;57879.81;5079878;28;46281;-71
2021/12/11 02:03:51;;;;;;;;;1.00;1.00;;;;;-146.25;100.00;57879.81;5080011;27;45282;-70
2021/12/11 02:06:17;;;;;;;;;0.67;0.00;;;;;-146.25;100.00;57879.81;5080052;28;45412;-70
2021/12/11 02:08:43;;;;;;;;;1.00;1.00;;;;;-146.25;100.00;57879.81;5080157;27;45503;-70
2021/12/11 02:11:17;;;;;;;;;1.67;1.00;;;;;-146.25;100.00;57879.81;5080080;28;46094;-71
2021/12/11 02:13:58;;;;;;;;;2.00;1.00;;;;;-146.25;100.00;57879.81;5079491;28;45391;-71
2021/12/11 02:16:44;;;;;;;;;1.00;1.00;;;;;-146.25;100.00;57879.81;5079875;28;45545;-70
2021/12/11 02:19:17;;;;;;;;;4.67;4.00;;;;;-146.25;100.00;57879.81;5080192;27;45372;-70
2021/12/11 02:21:55;;;;;;;;;3.67;1.00;;;;;-146.25;100.00;57879.81;5079548;28;46070;-70
2021/12/11 02:24:25;;;;;;;;;1.33;1.00;;;;;-146.25;100.00;57879.81;5078137;27;45528;-70
2021/12/11 02:26:54;;;;;;;;;2.00;2.00;;;;;-146.25;100.00;57879.81;5079664;28;45365;-70
2021/12/11 02:29:41;;;;;;;;;3.00;1.00;;;;;-146.25;100.00;57879.81;5079947;27;45345;-70
2021/12/11 02:32:18;;;;;;;;;2.00;1.00;;;;;-146.25;100.00;57879.81;5079294;28;45665;-70
2021/12/11 02:34:57;;;;;;;;;1.33;1.00;;;;;-146.25;100.00;57879.81;5079596;28;45485;-70
2021/12/11 02:37:34;;;;;;;;;2.00;0.00;;;;;-146.25;100.00;57879.81;5079546;28;45632;-70
2021/12/11 02:40:18;;;;;;;;;1.33;0.33;;;;;-146.25;100.00;57879.81;5079417;27;45466;-70
2021/12/11 02:42:52;;;;;;;;;1.00;0.00;;;;;-146.25;100.00;57879.81;5078439;28;45456;-71
2021/12/11 02:45:22;;;;;;;;;0.00;0.00;;;;;-146.25;100.00;57879.81;5079294;28;45669;-70
2021/12/11 02:48:00;;;;;;;;;0.00;0.00;;;;;-146.25;100.00;57879.81;5079347;28;45517;-70
2021/12/11 02:50:33;;;;;;;;;1.00;0.00;;;;;-146.25;100.00;57879.81;5079305;28;45313;-71
2021/12/11 02:53:06;;;;;;;;;0.33;0.00;;;;;-146.25;100.00;57879.81;5079049;28;46334;-70
2021/12/11 02:55:48;;;;;;;;;0.00;0.00;;;;;-146.25;100.00;57879.81;5079035;28;45513;-70
2021/12/11 02:58:28;;;;;;;;;0.00;0.00;;;;;-146.25;100.00;57879.81;5079532;28;45380;-70
2021/12/11 03:01:04;;;;;;;;;0.33;0.00;;;;;-146.25;100.00;57879.81;5079445;28;45437;-70
2021/12/11 03:03:36;;;;;;;;;1.00;1.00;;;;;-146.25;100.00;57879.81;5079158;27;46122;-70
2021/12/11 03:06:11;;;;;;;;;0.33;0.33;;;;;-146.25;100.00;57879.81;5078907;27;45377;-70
2021/12/11 03:08:37;;;;;;;;;0.33;0.00;;;;;-146.25;100.00;57879.81;5079051;27;45433;-70
2021/12/11 03:11:10;;;;;;;;;1.33;1.00;;;;;-146.25;100.00;57879.81;5079206;27;45470;-70
2021/12/11 03:13:38;;;;;;;;;0.00;0.00;;;;;-146.25;100.00;57879.81;5078689;27;46166;-70
2021/12/11 03:16:05;;;;;;;;;1.00;0.00;;;;;-146.25;100.00;57879.81;5080804;27;45436;-71
2021/12/11 03:18:30;;;;;;;;;0.67;0.00;;;;;-146.25;100.00;57879.81;5084023;28;45207;-70
2021/12/11 03:20:56;;;;;;;;;1.67;1.00;;;;;-146.25;100.00;57879.81;5095164;27;45357;-70
2021/12/11 03:23:23;;;;;;;;;0.00;0.00;;;;;-146.25;100.00;57879.81;5078755;28;45348;-70
2021/12/11 03:25:49;;;;;;;;;2.00;0.33;;;;;-146.25;100.00;57879.81;5078616;27;45469;-70
2021/12/11 03:28:20;;;;;;;;;1.00;0.00;;;;;-146.25;100.00;57879.81;5079114;28;45403;-70
2021/12/11 03:30:56;;;;;;;;;1.00;1.00;;;;;-146.25;100.00;57879.81;5079266;28;46045;-70
2021/12/11 03:33:24;;;;;;;;;3.00;1.00;;;;;-146.25;100.00;57879.81;5078302;28;46278;-71
2021/12/11 03:35:50;;;;;;;;;1.00;0.00;;;;;-146.25;100.00;57879.81;5078557;28;45413;-70
2021/12/11 03:38:16;;;;;;;;;1.00;0.00;;;;;-146.25;100.00;57879.81;5078561;28;45464;-70
2021/12/11 03:40:43;;;;;;;;;2.00;1.00;;;;;-146.25;100.00;57879.81;5078769;28;45490;-70
2021/12/11 03:43:14;;;;;;;;;1.00;0.00;;;;;-146.25;100.00;57879.81;5078354;28;46354;-70
2021/12/11 03:45:43;;;;;;;;;1.00;0.33;;;;;-146.25;100.00;57879.81;5078333;27;45345;-70
2021/12/11 03:48:23;;;;;;;;;2.33;1.33;;;;;-146.25;100.00;57879.81;5078330;27;45360;-70
2021/12/11 03:50:51;;;;;;;;;1.00;0.33;;;;;-146.25;100.00;57879.81;5078460;27;45499;-70
2021/12/11 03:53:18;;;;;;;;;1.00;0.00;;;;;-146.25;100.00;57879.81;5078218;28;45342;-70
2021/12/11 03:55:52;;;;;;;;;1.00;0.00;;;;;-146.25;100.00;57879.81;5078629;27;45265;-69
2021/12/11 03:58:19;;;;;;;;;0.00;0.00;;;;;-146.25;100.00;57879.81;5078527;28;45255;-70
2021/12/11 04:00:48;;;;;;;;;1.00;0.00;;;;;-146.25;100.00;57879.81;5078682;28;45464;-70
2021/12/11 04:03:16;;;;;;;;;1.00;1.00;;;;;-146.25;100.00;57879.81;5078269;27;45431;-69
2021/12/11 04:05:44;;;;;;;;;0.33;0.00;;;;;-146.25;100.00;57879.81;5078176;27;45476;-69
2021/12/11 04:08:15;;;;;;;;;2.00;1.00;;;;;-146.25;100.00;57879.81;5078159;28;45294;-70
2021/12/11 04:10:41;;;;;;;;;1.00;0.33;;;;;-146.25;100.00;57879.81;5078324;28;45357;-70
2021/12/11 04:13:08;;;;;;;;;1.00;0.33;;;;;-146.25;100.00;57879.81;5078027;28;45448;-70
2021/12/11 04:15:38;;;;;;;;;0.67;0.00;;;;;-146.25;100.00;57879.81;5077983;28;45285;-70
2021/12/11 04:18:05;;;;;;;;;1.00;0.33;;;;;-146.25;100.00;57879.81;5078135;27;45300;-70
2021/12/11 04:20:33;;;;;;;;;0.00;0.00;;;;;-146.25;100.00;57879.81;5078158;27;45345;-70
2021/12/11 04:22:59;;;;;;;;;2.00;0.00;;;;;-146.25;100.00;57879.81;5077729;28;46190;-69
2021/12/11 04:25:26;;;;;;;;;0.00;0.00;;;;;-146.25;100.00;57879.81;5077647;28;45488;-70
2021/12/11 04:27:55;;;;;;;;;0.00;0.00;;;;;-146.25;100.00;57879.81;5077700;27;45312;-70
2021/12/11 04:30:23;;;;;;;;;0.00;0.00;;;;;-146.25;100.00;57879.81;5077800;28;45316;-70
2021/12/11 04:32:50;;;;;;;;;2.33;0.00;;;;;-146.25;100.00;57879.81;5077658;28;45275;-69
2021/12/11 04:35:17;;;;;;;;;0.00;0.00;;;;;-146.25;100.00;57879.81;5078028;27;45350;-70
2021/12/11 04:37:43;;;;;;;;;0.00;0.00;;;;;-146.25;100.00;57879.81;5077870;28;45645;-70
2021/12/11 04:40:16;;;;;;;;;2.00;0.00;;;;;-146.25;100.00;57879.81;5077879;27;45317;-70
2021/12/11 04:42:53;;;;;;;;;0.00;0.00;;;;;-146.25;100.00;57879.81;5077454;27;45467;-70
2021/12/11 04:45:25;;;;;;;;;0.33;0.00;;;;;-146.25;100.00;57879.81;5077856;27;45742;-70
2021/12/11 04:47:57;;;;;;;;;0.33;0.00;;;;;-146.25;100.00;57879.81;5077720;27;45515;-70
2021/12/11 04:50:59;;;;;;;;;0.00;0.00;;;;;-146.25;100.00;57879.81;5093156;27;45535;-70
2021/12/11 04:53:34;;;;;;;;;0.00;0.00;;;;;-146.25;100.00;57879.81;5077136;27;45957;-70
2021/12/11 05:01:45;;;;;;;;;0.00;0.00;;;;;-146.25;100.00;57879.81;5077900;28;45318;-70
2021/12/11 05:12:04;;;;;;;;;1.00;0.00;;;;;-146.25;100.00;57879.81;5080836;27;45470;-70
2021/12/11 05:14:30;;;;;;;;;1.33;0.00;;;;;-146.25;100.00;57879.81;5080464;27;46304;-70
2021/12/11 05:16:55;;;;;;;;;1.00;0.00;;;;;-146.25;100.00;57879.81;5080487;28;45499;-69
2021/12/11 05:19:21;;;;;;;;;0.00;0.00;;;;;-146.25;100.00;57879.81;5080903;27;45483;-69
2021/12/11 05:21:47;;;;;;;;;1.00;0.33;;;;;-146.25;100.00;57879.81;5080623;27;45375;-69
2021/12/11 05:24:14;;;;;;;;;0.33;0.00;;;;;-146.25;100.00;57879.81;5080491;27;46629;-71
2021/12/11 05:26:40;;;;;;;;;1.00;0.00;;;;;-146.25;100.00;57879.81;5080211;27;45432;-69
2021/12/11 05:29:07;;;;;;;;;0.00;0.00;;;;;-146.25;100.00;57879.81;5080303;28;45425;-70
2021/12/11 05:31:32;;;;;;;;;0.00;0.00;;;;;-146.25;100.00;57879.81;5080654;27;45900;-70
2021/12/11 05:33:58;;;;;;;;;1.33;1.33;;;;;-146.25;100.00;57879.81;5079885;27;45479;-70
2021/12/11 05:36:27;;;;;;;;;1.00;0.00;;;;;-146.25;100.00;57879.81;5080049;28;45493;-70
2021/12/11 05:38:53;;;;;;;;;0.33;0.00;;;;;-146.25;100.00;57879.81;5080646;27;45337;-70
2021/12/11 05:41:20;;;;;;;;;1.00;0.00;;;;;-146.25;100.00;57879.81;5080653;27;45329;-70
2021/12/11 05:43:47;;;;;;;;;0.33;0.33;;;;;-146.25;100.00;57879.81;5080285;27;46196;-70
2021/12/11 05:46:14;;;;;;;;;2.00;2.00;;;;;-146.25;100.00;57879.81;5080095;27;45579;-70
2021/12/11 05:48:42;;;;;;;;;2.00;1.33;;;;;-146.25;100.00;57879.81;5080521;27;45378;-71
2021/12/11 05:51:10;;;;;;;;;1.67;1.00;;;;;-146.25;100.00;57879.81;5080514;27;45524;-70
2021/12/11 05:53:36;;;;;;;;;1.00;1.00;;;;;-146.25;100.00;57879.81;5079867;27;46164;-70
2021/12/11 05:56:11;;;;;;;;;2.00;1.00;;;;;-146.25;100.00;57879.81;5080022;27;45586;-70
2021/12/11 06:01:40;;;;;;;;;1.00;0.00;;;;;-146.25;100.00;57879.81;5080300;27;45312;-70
2021/12/11 06:04:09;;;;;;;;;0.00;0.00;;;;;-146.25;100.00;57879.81;5079450;28;46107;-70
2021/12/11 06:06:37;;;;;;;;;0.00;0.00;;;;;-146.25;100.00;57879.81;5079933;28;45369;-70
2021/12/11 06:09:06;;;;;;;;;1.00;0.00;;;;;-146.25;100.00;57879.81;5080041;27;45302;-70
2021/12/11 06:11:33;;;;;;;;;0.00;0.00;;;;;-146.25;100.00;57879.81;5080271;27;45294;-70
2021/12/11 06:13:59;;;;;;;;;0.00;0.00;;;;;-146.25;100.00;57879.81;5079848;28;46033;-70
2021/12/11 06:16:25;;;;;;;;;0.33;0.00;;;;;-146.25;100.00;57879.81;5080048;27;45457;-70
2021/12/11 06:18:51;;;;;;;;;1.00;0.00;;;;;-146.25;100.00;57879.81;5080161;27;45355;-70
2021/12/11 06:21:17;;;;;;;;;0.00;0.00;;;;;-146.25;100.00;57879.81;5080132;27;45422;-70
2021/12/11 06:23:44;;;;;;;;;1.00;0.00;;;;;-146.25;100.00;57879.81;5079735;28;46162;-70
2021/12/11 06:26:10;;;;;;;;;1.00;0.00;;;;;-146.25;100.00;57879.81;5083464;27;45455;-70
2021/12/11 06:28:37;;;;;;;;;2.00;1.00;;;;;-146.25;100.00;57879.81;5083841;27;45511;-70
2021/12/11 06:31:04;;;;;;;;;0.67;0.00;;;;;-146.25;100.00;57879.81;5079913;27;45296;-70
2021/12/11 06:33:32;;;;;;;;;0.00;0.00;;;;;-146.25;100.00;57879.81;5079338;27;45289;-70
2021/12/11 06:36:14;;;;;;;;;0.33;0.00;;;;;-146.25;100.00;57879.81;5079447;27;45680;-70
2021/12/11 06:38:42;;;;;;;;;1.00;0.00;;;;;-146.25;100.00;57879.81;5079500;27;45226;-70
2021/12/11 06:41:11;;;;;;;;;0.00;0.00;;;;;-146.25;100.00;57879.81;5079748;27;45504;-70
2021/12/11 06:43:38;;;;;;;;;0.00;0.00;;;;;-146.25;100.00;57879.81;5079313;27;46115;-70
2021/12/11 06:46:05;;;;;;;;;1.00;0.00;;;;;-146.25;100.00;57879.81;5079286;27;45427;-70
2021/12/11 06:48:31;;;;;;;;;0.00;0.00;;;;;-146.25;100.00;57879.81;5079474;27;45430;-70
2021/12/11 06:50:58;;;;;;;;;0.33;0.00;;;;;-146.25;100.00;57879.81;5079934;28;45479;-71
2021/12/11 06:53:37;;;;;;;;;0.00;0.00;;;;;-146.25;100.00;57879.81;5095046;27;48175;-70
2021/12/11 06:56:03;;;;;;;;;1.00;0.00;;;;;-146.25;100.00;57879.81;5078917;27;45480;-70
2021/12/11 06:58:30;;;;;;;;;0.00;0.00;;;;;-146.25;100.00;57879.81;5079301;27;45239;-70
2021/12/11 07:00:55;;;;;;;;;0.00;0.00;;;;;-146.25;100.00;57879.81;5079838;28;45382;-71
2021/12/11 07:03:21;;;;;;;;;0.00;0.00;;;;;-146.25;100.00;57879.81;5078908;27;46084;-70
2021/12/11 07:05:46;;;;;;;;;0.33;0.00;;;;;-146.25;100.00;57879.81;5094889;27;45495;-70
2021/12/11 07:08:13;;;;;;;;;0.00;0.00;;;;;-146.25;100.00;57879.81;5079162;28;45413;-70
2021/12/11 07:10:40;;;;;;;;;1.00;0.00;;;;;-146.25;100.00;57879.81;5079278;27;45344;-70
2021/12/11 07:13:07;;;;;;;;;0.00;0.00;;;;;-146.25;100.00;57879.81;5078740;27;46446;-71
2021/12/11 07:15:32;;;;;;;;;0.00;0.00;;;;;-146.25;100.00;57879.81;5078863;27;45538;-70
2021/12/11 07:17:58;;;;;;;;;0.00;0.00;;;;;-146.25;100.00;57879.81;5078759;28;45359;-76
2021/12/11 07:20:24;;;;;;;;;0.00;0.00;;;;;-146.25;100.00;57879.81;5078939;27;45470;-70
2021/12/11 07:22:50;;;;;;;;;0.00;0.00;;;;;-146.25;100.00;57879.81;5078114;27;45572;-70
2021/12/11 07:25:27;;;;;;;;;5.33;5.00;;;;;-146.25;100.00;57879.81;5077761;28;45615;-70
2021/12/11 07:27:55;;;;;;;;;3.00;2.00;;;;;-146.25;100.00;57879.81;5076583;28;45366;-71
2021/12/11 07:30:23;;;;;;;;;2.00;1.00;;;;;-146.25;100.00;57879.81;5078438;27;45357;-70
2021/12/11 07:32:51;;;;;;;;;12.00;10.50;;;;;-146.25;100.00;57879.81;5074740;28;46479;-71
2021/12/11 07:35:16;;;;;;;;;8.67;8.67;;;;;-146.25;100.00;57879.81;5077774;27;45436;-70
2021/12/11 07:37:48;;;;;;;;;4.33;4.00;;;;;-146.25;100.00;57879.81;5078636;28;45462;-71
2021/12/11 07:40:15;;;;;;;;;5.33;4.67;;;;;-146.25;100.00;57879.81;5078123;27;45468;-70
2021/12/11 07:42:41;;;;;;;;;1.67;0.67;;;;;-146.25;100.00;57879.81;5076618;28;46237;-70
2021/12/11 07:45:07;;;;;;;;;5.33;4.33;;;;;-146.25;100.00;57879.81;5076910;28;45397;-70
2021/12/11 07:47:33;;;;;;;;;9.33;6.00;;;;;-146.25;100.00;57879.81;5077564;27;45491;-70
2021/12/11 07:49:59;;;;;;;;;1.00;0.00;;;;;-146.25;100.00;57879.81;5078280;27;45451;-70
2021/12/11 07:52:24;;;;;;;;;2.67;2.00;;;;;-146.25;100.00;57879.81;5077122;27;45488;-70
2021/12/11 07:54:50;;;;;;;;;6.00;6.00;;;;;-146.25;100.00;57879.81;5077358;28;45441;-70
2021/12/11 07:57:15;;;;;;;;;2.00;2.00;;;;;-146.25;100.00;57879.81;5074474;27;45413;-71
2021/12/11 07:59:41;;;;;;;;;3.00;2.00;;;;;-146.25;100.00;57879.81;5077430;27;45431;-70
2021/12/11 08:02:07;;;;;;;;;11.75;11.50;;;;;-146.25;100.00;57879.81;5077093;27;45888;-70
2021/12/11 08:04:34;;;;;;;;;14.50;12.00;;;;;-146.25;100.00;57879.81;5077215;27;45434;-71
2021/12/11 08:07:01;;;;;;;;;3.67;3.00;;;;;-146.25;100.00;57879.81;5077487;27;45329;-70
2021/12/11 08:09:26;;;;;;;;;36.25;32.25;;;;;-146.25;100.00;57879.81;5077686;27;45540;-71
2021/12/11 08:11:53;;;;;;;;;17.50;16.00;;;;;-146.25;100.00;57879.81;5076928;27;45424;-71
2021/12/11 08:14:21;;;;;;;;;25.00;20.00;;;;;-146.25;100.00;57879.81;5077903;28;45490;-70
2021/12/11 08:16:49;;;;;;;;;25.75;23.25;;;;;-146.25;100.00;57879.81;5077911;27;45547;-69
2021/12/11 08:19:19;;;;;;;;;47.25;40.00;;;;;-146.25;100.00;57879.81;5078058;27;45326;-67
2021/12/11 08:21:48;;;;;;;;;26.25;22.25;;;;;-146.25;100.00;57879.81;5077780;28;46120;-70
2021/12/11 08:24:15;;;;;;;;;32.00;26.75;;;;;-146.25;100.00;57879.81;5077905;27;45258;-70
2021/12/11 08:26:42;;;;;;;;;38.25;33.25;;;;;-146.25;100.00;57879.81;5077611;27;45333;-71
2021/12/11 08:29:11;;;;;;;;;36.00;34.00;;;;;-146.25;100.00;57879.81;5077881;27;45488;-71
2021/12/11 08:31:39;;;;;;;;;6.00;4.67;;;;;-146.25;100.00;57879.81;5070035;27;45575;-72
2021/12/11 08:34:05;;;;;;;;;6.00;4.67;;;;;-146.25;100.00;57879.81;5076211;27;45473;-72
2021/12/11 08:36:31;;;;;;;;;6.00;6.00;;;;;-146.25;100.00;57879.81;5076502;27;45526;-70
2021/12/11 08:38:59;;;;;;;;;4.00;4.00;;;;;-146.25;100.00;57879.81;5074873;27;45395;-70
2021/12/11 08:41:27;;;;;;;;;38.25;34.00;;;;;-146.25;100.00;57879.81;5075823;27;46206;-68
2021/12/11 08:44:00;;;;;;;;;6.00;6.00;;;;;-146.25;100.00;57879.81;5075891;27;45588;-74
2021/12/11 08:46:29;;;;;;;;;6.33;6.00;;;;;-146.25;100.00;57879.81;5076158;27;45404;-69
2021/12/11 08:49:01;;;;;;;;;11.50;10.25;;;;;-146.25;100.00;57879.81;5076171;27;45451;-69
2021/12/11 08:51:35;;;;;;;;;6.67;5.33;;;;;-146.25;100.00;57879.81;5076346;28;45463;-75
2021/12/11 08:54:01;;;;;;;;;5.00;4.00;;;;;-146.25;100.00;57879.81;5075806;27;45512;-70
2021/12/11 08:56:28;;;;;;;;;11.25;10.50;;;;;-146.25;100.00;57879.81;5091640;27;45507;-70
2021/12/11 08:58:54;;;;;;;;;20.75;18.00;;;;;-146.25;100.00;57879.81;5076156;27;45327;-69
2021/12/11 09:01:36;;;;;;;;;17.25;16.00;;;;;-146.25;100.00;57879.81;5075696;28;46028;-69
2021/12/11 09:04:15;;;;;;;;;31.75;28.75;;;;;-146.25;100.00;57879.81;5076453;27;45409;-69
2021/12/11 09:06:56;;;;;;;;;19.75;18.50;;;;;-146.25;100.00;57879.81;5076752;27;45544;-69
2021/12/11 09:09:27;;;;;;;;;3.00;3.00;;;;;-146.25;100.00;57879.81;5091910;27;45509;-70
2021/12/11 09:12:06;;;;;;;;;24.25;23.25;;;;;-146.25;100.00;57879.81;5076157;27;45598;-68
2021/12/11 09:14:55;;;;;;;;;22.75;20.75;;;;;-146.25;100.00;57879.81;5075848;27;45521;-78
2021/12/11 09:17:40;;;;;;;;;32.50;28.75;;;;;-146.25;100.00;57879.81;5075325;28;45370;-69
2021/12/11 09:20:24;;;;;;;;;36.00;31.75;;;;;-146.25;100.00;57879.81;5075825;27;45399;-70
2021/12/11 09:23:04;;;;;;;;;37.00;33.00;;;;;-146.25;100.00;57879.81;5075673;28;45375;-74
2021/12/11 09:25:43;;;;;;;;;24.00;23.00;;;;;-146.25;100.00;57879.81;5076464;28;45444;-69
2021/12/11 09:28:24;;;;;;;;;24.25;21.00;;;;;-146.25;100.00;57879.81;5076603;27;45493;-68
2021/12/11 09:31:03;;;;;;;;;14.00;13.00;;;;;-146.25;100.00;57879.81;5076079;28;45334;-69
2021/12/11 09:33:35;;;;;;;;;17.50;16.50;;;;;-146.25;100.00;57879.81;5076702;27;45991;-69
2021/12/11 09:36:07;;;;;;;;;32.00;28.00;;;;;-146.25;100.00;57879.81;5079906;27;45376;-69
2021/12/11 09:38:39;;;;;;;;;17.25;16.25;;;;;-146.25;100.00;57879.81;5079121;27;45579;-69
2021/12/11 09:41:24;;;;;;;;;26.75;24.75;;;;;-146.25;100.00;57879.81;5076953;27;45564;-69
2021/12/11 09:44:05;;;;;;;;;16.25;15.75;;;;;-146.25;100.00;57879.81;5076026;27;45417;-71
2021/12/11 09:46:36;;;;;;;;;5.67;5.33;;;;;-146.25;100.00;57879.81;5075189;28;45476;-68
2021/12/11 09:49:05;;;;;;;;;15.67;14.33;;;;;-146.25;100.00;57879.81;5077064;27;45424;-69
2021/12/11 09:51:36;;;;;;;;;20.50;17.50;;;;;-146.25;100.00;57879.81;5079301;27;45463;-69
2021/12/11 09:54:07;;;;;;;;;9.67;8.67;;;;;-146.25;100.00;57879.81;5080032;27;46341;-68
2021/12/11 09:56:42;;;;;;;;;4.00;2.33;;;;;-146.25;100.00;57879.81;5080215;27;45332;-68
2021/12/11 09:59:11;;;;;;;;;32.00;27.00;;;;;-146.25;100.00;57879.81;5080025;28;45412;-69
2021/12/11 10:01:41;;;;;;;;;8.67;7.00;;;;;-146.25;100.00;57879.81;5080314;27;45595;-68
2021/12/11 10:04:13;;;;;;;;;16.33;14.67;;;;;-146.25;100.00;57879.81;5080116;27;45369;-69
2021/12/11 10:09:28;;;;;;;;;7.00;5.33;;;;;-146.25;100.00;57879.81;5079897;27;45421;-70
2021/12/11 10:12:14;;;;;;;;;11.67;8.67;;;;;-146.25;100.00;57879.81;5080214;27;45368;-69
2021/12/11 10:14:45;;;;;;;;;9.33;9.33;;;;;-146.25;100.00;57879.81;5079834;27;45495;-70
2021/12/11 10:17:21;;;;;;;;;11.00;10.33;;;;;-146.25;100.00;57879.81;5078340;28;45512;-69
2021/12/11 10:19:48;;;;;;;;;16.33;14.33;;;;;-146.25;100.00;57879.81;5079682;27;45384;-68
2021/12/11 10:22:20;;;;;;;;;46.75;39.00;;;;;-146.25;100.00;57879.81;5079720;27;45250;-68
2021/12/11 10:24:47;;;;;;;;;6.67;6.00;;;;;-146.25;100.00;57879.81;5079257;27;45542;-68
2021/12/11 10:27:17;;;;;;;;;23.75;22.25;;;;;-146.25;100.00;57879.81;5079319;27;45525;-69
2021/12/11 10:29:45;;;;;;;;;7.00;7.00;;;;;-146.25;100.00;57879.81;5079218;27;45184;-68
2021/12/11 10:32:16;;;;;;;;;23.00;19.75;;;;;-146.25;100.00;57879.81;5079504;28;45497;-69
2021/12/11 10:34:48;;;;;;;;;14.67;13.67;;;;;-146.25;100.00;57879.81;5079193;27;46131;-69
2021/12/11 10:37:22;;;;;;;;;26.25;25.75;;;;;-146.25;100.00;57879.81;5079157;27;45369;-68
2021/12/11 10:39:53;;;;;;;;;47.50;38.00;;;;;-146.25;100.00;57879.81;5079546;27;45386;-69
2021/12/11 10:42:19;;;;;;;;;8.67;8.00;;;;;-146.25;100.00;57879.81;5079154;28;45541;-69
2021/12/11 10:44:49;;;;;;;;;8.00;7.00;;;;;-146.25;100.00;57879.81;5079149;27;46002;-71
2021/12/11 10:47:22;;;;;;;;;5.00;4.00;;;;;-146.25;100.00;57879.81;5079197;28;45472;-71
2021/12/11 10:49:50;;;;;;;;;8.00;6.33;;;;;-146.25;100.00;57879.81;5079226;27;45428;-72
2021/12/11 10:52:17;;;;;;;;;13.33;12.67;;;;;-146.25;100.00;57879.81;5079342;27;45437;-72
2021/12/11 10:54:45;;;;;;;;;6.67;6.00;;;;;-146.25;100.00;57879.81;5079056;27;45417;-72
2021/12/11 10:57:12;;;;;;;;;14.00;14.00;;;;;-146.25;100.00;57879.81;5078994;27;45360;-73
2021/12/11 10:59:41;;;;;;;;;7.00;6.00;;;;;-146.25;100.00;57879.81;5079570;27;45315;-71
2021/12/11 11:02:24;;;;;;;;;5.33;5.33;;;;;-146.25;100.00;57879.81;5078483;28;45247;-72
2021/12/11 11:04:58;;;;;;;;;2.33;2.00;;;;;-146.25;100.00;57879.81;5079069;27;46134;-72
2021/12/11 11:07:25;;;;;;;;;6.00;5.00;;;;;-146.25;100.00;57879.81;5078804;27;45333;-72
2021/12/11 11:09:52;;;;;;;;;7.67;7.67;;;;;-146.25;100.00;57879.81;5079030;27;45501;-72
2021/12/11 11:12:21;;;;;;;;;6.67;6.67;;;;;-146.25;100.00;57879.81;5079154;27;45429;-72
2021/12/11 11:14:49;;;;;;;;;1.00;1.00;;;;;-146.25;100.00;57879.81;5078509;27;45456;-71
2021/12/11 11:17:21;;;;;;;;;1.00;1.00;;;;;-146.25;100.00;57879.81;5078649;28;45333;-72
2021/12/11 11:19:49;;;;;;;;;3.00;2.00;;;;;-146.25;100.00;57879.81;5079053;27;45796;-71
2021/12/11 11:22:20;;;;;;;;;1.33;1.33;;;;;-146.25;100.00;57879.81;5079024;27;45338;-71
2021/12/11 11:24:49;;;;;;;;;5.67;4.33;;;;;-146.25;100.00;57879.81;5078500;28;45463;-71
2021/12/11 11:27:16;;;;;;;;;5.67;5.67;;;;;-146.25;100.00;57879.81;5078369;28;45464;-71
2021/12/11 11:29:43;;;;;;;;;5.00;4.00;;;;;-146.25;100.00;57879.81;5078750;27;45473;-70
2021/12/11 11:32:16;;;;;;;;;1.00;1.00;;;;;-146.25;100.00;57879.81;5078723;27;45523;-70
2021/12/11 11:34:43;;;;;;;;;3.00;3.00;;;;;-146.25;100.00;57879.81;5078564;28;46188;-71
2021/12/11 11:37:13;;;;;;;;;6.00;5.00;;;;;-146.25;100.00;57879.81;5078748;27;45517;-70
2021/12/11 11:39:39;;;;;;;;;7.00;5.00;;;;;-146.25;100.00;57879.81;5078768;28;45392;-70
2021/12/11 11:42:12;;;;;;;;;4.00;3.67;;;;;-146.25;100.00;57879.81;5078447;27;45298;-70